Time,TemperatureF,DewpointF,PressureIn,WindDirection,WindDirectionDegrees,WindSpeedMPH,WindSpeedGustMPH,Humidity,HourlyPrecipIn,Conditions,Clouds,dailyrainin,SolarRadiationWatts/m^2,SoftwareType,DateUTC
2013-11-20 00:14:00,56.2,55.0,29.94,SE,134,4.0,8.0,96,0.01,,,0.01,0,weatherlink.com 1.10,2013-11-20 08:14:00,
2013-11-20 00:29:00,56.3,55.0,29.94,SSE,158,2.0,5.0,96,0.02,,,0.02,0,weatherlink.com 1.10,2013-11-20 08:29:00,
2013-11-20 00:44:00,56.3,55.0,29.93,SE,144,4.0,9.0,96,0.02,,,0.02,0,weatherlink.com 1.10,2013-11-20 08:44:00,
2013-11-20 00:59:00,56.3,55.0,29.93,ESE,122,7.0,7.0,96,0.02,,,0.02,0,weatherlink.com 1.10,2013-11-20 08:59:00,
2013-11-20 01:14:00,56.3,55.0,29.93,SSE,160,5.0,6.0,96,0.01,,,0.02,0,weatherlink.com 1.10,2013-11-20 09:14:00,
2013-11-20 01:29:00,56.2,55.0,29.92,SE,138,4.0,9.0,96,0.00,,,0.02,0,weatherlink.com 1.10,2013-11-20 09:29:00,
2013-11-20 01:44:00,56.3,55.0,29.91,SE,144,6.0,9.0,96,0.00,,,0.02,0,weatherlink.com 1.10,2013-11-20 09:44:00,
2013-11-20 01:59:00,56.3,55.0,29.92,SE,130,4.0,8.0,96,0.00,,,0.02,0,weatherlink.com 1.10,2013-11-20 09:59:00,
2013-11-20 02:14:00,56.3,55.0,29.92,SE,137,7.0,7.0,96,0.00,,,0.02,0,weatherlink.com 1.10,2013-11-20 10:14:00,
2013-11-20 02:29:00,56.3,55.0,29.91,SE,133,5.0,7.0,96,0.00,,,0.02,0,weatherlink.com 1.10,2013-11-20 10:29:00,
2013-11-20 02:44:00,56.2,55.0,29.91,SE,141,3.0,6.0,96,0.00,,,0.02,0,weatherlink.com 1.10,2013-11-20 10:44:00,
2013-11-20 02:59:00,56.2,55.0,29.91,SE,133,5.0,11.0,96,0.00,,,0.02,0,weatherlink.com 1.10,2013-11-20 10:59:00,
2013-11-20 03:14:00,56.1,55.0,29.90,SE,128,4.0,9.0,96,0.00,,,0.02,0,weatherlink.com 1.10,2013-11-20 11:14:00,
2013-11-20 03:29:00,56.1,55.0,29.90,SE,142,5.0,10.0,96,0.00,,,0.02,0,weatherlink.com 1.10,2013-11-20 11:29:00,
2013-11-20 03:44:00,56.1,55.0,29.90,SSE,147,3.0,8.0,96,0.02,,,0.04,0,weatherlink.com 1.10,2013-11-20 11:44:00,
2013-11-20 03:59:00,56.1,55.0,29.90,ESE,123,3.0,8.0,96,0.02,,,0.04,0,weatherlink.com 1.10,2013-11-20 11:59:00,
2013-11-20 04:14:00,56.1,55.0,29.90,SE,137,4.0,8.0,97,0.03,,,0.05,0,weatherlink.com 1.10,2013-11-20 12:14:00,
2013-11-20 04:29:00,56.1,55.0,29.90,SE,128,4.0,9.0,97,0.03,,,0.05,0,weatherlink.com 1.10,2013-11-20 12:29:00,
2013-11-20 04:44:00,56.1,55.0,29.90,SSE,147,3.0,9.0,97,0.01,,,0.05,0,weatherlink.com 1.10,2013-11-20 12:44:00,
2013-11-20 04:59:00,56.1,55.0,29.90,SE,138,6.0,9.0,97,0.01,,,0.05,0,weatherlink.com 1.10,2013-11-20 12:59:00,
2013-11-20 05:14:00,56.1,55.0,29.90,SE,133,5.0,8.0,97,0.01,,,0.06,0,weatherlink.com 1.10,2013-11-20 13:14:00,
2013-11-20 05:29:00,56.1,55.0,29.89,SSE,162,2.0,8.0,96,0.01,,,0.06,0,weatherlink.com 1.10,2013-11-20 13:29:00,
2013-11-20 05:44:00,56.1,55.0,29.89,SE,138,3.0,8.0,97,0.01,,,0.06,0,weatherlink.com 1.10,2013-11-20 13:44:00,
2013-11-20 05:59:00,56.2,55.0,29.90,SE,140,3.0,6.0,97,0.01,,,0.06,0,weatherlink.com 1.10,2013-11-20 13:59:00,
2013-11-20 06:14:00,56.2,55.0,29.90,SE,141,1.0,7.0,97,0.00,,,0.06,0,weatherlink.com 1.10,2013-11-20 14:14:00,
2013-11-20 06:29:00,56.3,56.0,29.90,SE,138,3.0,6.0,97,0.00,,,0.06,0,weatherlink.com 1.10,2013-11-20 14:29:00,
2013-11-20 06:44:00,56.3,56.0,29.90,SE,139,3.0,6.0,97,0.01,,,0.07,0,weatherlink.com 1.10,2013-11-20 14:44:00,
2013-11-20 06:59:00,56.3,56.0,29.90,SSE,153,4.0,5.0,97,0.01,,,0.07,0,weatherlink.com 1.10,2013-11-20 14:59:00,
2013-11-20 07:14:00,56.3,56.0,29.91,SE,136,4.0,8.0,97,0.01,,,0.07,0,weatherlink.com 1.10,2013-11-20 15:14:00,
2013-11-20 07:29:00,56.3,56.0,29.91,SE,140,3.0,4.0,97,0.01,,,0.07,5,weatherlink.com 1.10,2013-11-20 15:29:00,
2013-11-20 07:45:00,56.3,56.0,29.91,SE,138,3.0,6.0,97,0.00,,,0.07,14,weatherlink.com 1.10,2013-11-20 15:45:00,
2013-11-20 08:00:00,56.4,56.0,29.91,SE,139,3.0,5.0,97,0.00,,,0.07,21,weatherlink.com 1.10,2013-11-20 16:00:00,
2013-11-20 08:15:00,56.5,56.0,29.91,SSE,153,5.0,7.0,97,0.00,,,0.07,46,weatherlink.com 1.10,2013-11-20 16:15:00,
2013-11-20 08:30:00,56.8,56.0,29.91,SE,140,6.0,7.0,97,0.00,,,0.07,44,weatherlink.com 1.10,2013-11-20 16:30:00,
2013-11-20 08:45:00,56.9,56.0,29.91,SE,138,4.0,9.0,97,0.00,,,0.07,60,weatherlink.com 1.10,2013-11-20 16:45:00,
2013-11-20 09:00:00,56.9,56.0,29.90,SE,130,6.0,7.0,97,0.00,,,0.07,49,weatherlink.com 1.10,2013-11-20 17:00:00,
2013-11-20 09:15:00,57.0,56.0,29.91,SSE,153,3.0,6.0,97,0.00,,,0.07,40,weatherlink.com 1.10,2013-11-20 17:15:00,
2013-11-20 09:30:00,57.1,56.0,29.91,SSE,163,1.0,5.0,97,0.00,,,0.07,42,weatherlink.com 1.10,2013-11-20 17:30:00,
2013-11-20 09:45:00,57.3,57.0,29.91,SE,141,2.0,5.0,97,0.00,,,0.07,58,weatherlink.com 1.10,2013-11-20 17:45:00,
2013-11-20 10:00:00,57.4,57.0,29.91,South,176,3.0,5.0,97,0.00,,,0.07,63,weatherlink.com 1.10,2013-11-20 18:00:00,
2013-11-20 10:15:00,57.5,57.0,29.91,SSW,205,1.0,3.0,97,0.01,,,0.08,47,weatherlink.com 1.10,2013-11-20 18:15:00,
2013-11-20 10:30:00,57.4,57.0,29.91,SSW,201,1.0,3.0,97,0.01,,,0.08,69,weatherlink.com 1.10,2013-11-20 18:30:00,
2013-11-20 10:45:00,57.5,57.0,29.90,South,185,0.0,2.0,97,0.01,,,0.08,26,weatherlink.com 1.10,2013-11-20 18:45:00,
2013-11-20 11:00:00,57.3,57.0,29.90,West,262,0.0,2.0,97,0.06,,,0.13,9,weatherlink.com 1.10,2013-11-20 19:00:00,
2013-11-20 11:30:00,55.7,55.0,29.90,South,185,0.0,3.0,97,0.22,,,0.30,14,weatherlink.com 1.10,2013-11-20 19:30:00,
2013-11-20 11:45:00,55.6,55.0,29.89,South,184,2.0,2.0,97,0.27,,,0.35,23,weatherlink.com 1.10,2013-11-20 19:45:00,
2013-11-20 12:00:00,55.4,55.0,29.88,South,178,1.0,3.0,97,0.27,,,0.40,46,weatherlink.com 1.10,2013-11-20 20:00:00,
2013-11-20 12:15:00,55.6,55.0,29.88,South,178,0.0,0.0,97,0.19,,,0.43,35,weatherlink.com 1.10,2013-11-20 20:15:00,
2013-11-20 12:30:00,55.9,55.0,29.87,South,178,0.0,0.0,97,0.16,,,0.46,39,weatherlink.com 1.10,2013-11-20 20:30:00,
2013-11-20 12:45:00,56.1,55.0,29.87,South,178,0.0,0.0,97,0.12,,,0.47,40,weatherlink.com 1.10,2013-11-20 20:45:00,
2013-11-20 13:00:00,56.2,55.0,29.88,South,178,1.0,2.0,97,0.07,,,0.48,11,weatherlink.com 1.10,2013-11-20 21:00:00,
2013-11-20 13:15:00,55.5,55.0,29.88,SSW,200,0.0,3.0,97,0.07,,,0.50,12,weatherlink.com 1.10,2013-11-20 21:15:00,
2013-11-20 13:30:00,55.1,54.0,29.88,SSW,209,0.0,3.0,97,0.08,,,0.54,12,weatherlink.com 1.10,2013-11-20 21:30:00,
2013-11-20 13:45:00,54.9,54.0,29.86,SSE,161,2.0,4.0,97,0.13,,,0.60,16,weatherlink.com 1.10,2013-11-20 21:45:00,
2013-11-20 14:00:00,55.0,54.0,29.83,SSE,159,0.0,2.0,97,0.16,,,0.64,144,weatherlink.com 1.10,2013-11-20 22:00:00,
2013-11-20 14:15:00,55.9,55.0,29.84,SSE,159,0.0,1.0,97,0.14,,,0.64,137,weatherlink.com 1.10,2013-11-20 22:15:00,
2013-11-20 14:30:00,57.0,57.0,29.84,SSE,159,0.0,1.0,98,0.09,,,0.64,158,weatherlink.com 1.10,2013-11-20 22:30:00,
2013-11-20 14:45:00,57.6,57.0,29.84,North,355,0.0,3.0,97,0.04,,,0.64,153,weatherlink.com 1.10,2013-11-20 22:45:00,
2013-11-20 15:00:00,56.7,56.0,29.85,North,5,1.0,6.0,97,0.00,,,0.64,142,weatherlink.com 1.10,2013-11-20 23:00:00,
2013-11-20 15:15:00,56.3,56.0,29.85,North,5,0.0,2.0,97,0.00,,,0.64,100,weatherlink.com 1.10,2013-11-20 23:15:00,
2013-11-20 15:30:00,56.2,55.0,29.85,NE,38,0.0,2.0,97,0.00,,,0.64,97,weatherlink.com 1.10,2013-11-20 23:30:00,
2013-11-20 15:45:00,56.4,56.0,29.85,NE,37,1.0,2.0,97,0.00,,,0.64,86,weatherlink.com 1.10,2013-11-20 23:45:00,
2013-11-20 16:01:00,56.6,56.0,29.86,NE,37,0.0,1.0,97,0.00,,,0.64,62,weatherlink.com 1.10,2013-11-21 00:01:00,
2013-11-20 16:15:00,56.5,56.0,29.86,NNW,338,0.0,0.0,97,0.00,,,0.64,35,weatherlink.com 1.10,2013-11-21 00:15:00,
2013-11-20 16:30:00,56.1,55.0,29.87,South,185,2.0,2.0,97,0.00,,,0.64,30,weatherlink.com 1.10,2013-11-21 00:30:00,
2013-11-20 16:45:00,55.4,54.0,29.87,SE,142,3.0,3.0,96,0.00,,,0.64,25,weatherlink.com 1.10,2013-11-21 00:45:00,
2013-11-20 17:00:00,54.9,54.0,29.87,SSE,151,1.0,3.0,97,0.00,,,0.64,0,weatherlink.com 1.10,2013-11-21 01:00:00,
2013-11-20 17:15:00,54.7,54.0,29.87,SSE,151,0.0,3.0,96,0.00,,,0.64,0,weatherlink.com 1.10,2013-11-21 01:15:00,
2013-11-20 17:30:00,54.5,54.0,29.87,SSE,151,1.0,4.0,97,0.00,,,0.64,0,weatherlink.com 1.10,2013-11-21 01:30:00,
2013-11-20 17:45:00,54.2,53.0,29.88,SE,134,0.0,4.0,97,0.00,,,0.64,0,weatherlink.com 1.10,2013-11-21 01:45:00,
2013-11-20 18:00:00,54.1,53.0,29.88,SE,134,1.0,4.0,97,0.00,,,0.64,0,weatherlink.com 1.10,2013-11-21 02:00:00,
2013-11-20 18:15:00,54.0,53.0,29.88,SE,136,1.0,4.0,97,0.00,,,0.64,0,weatherlink.com 1.10,2013-11-21 02:15:00,
2013-11-20 18:30:00,54.0,53.0,29.88,SE,138,1.0,3.0,97,0.00,,,0.64,0,weatherlink.com 1.10,2013-11-21 02:30:00,
2013-11-20 18:45:00,53.9,53.0,29.88,SSE,153,2.0,3.0,97,0.00,,,0.64,0,weatherlink.com 1.10,2013-11-21 02:45:00,
2013-11-20 19:00:00,53.8,53.0,29.88,SSE,153,0.0,1.0,97,0.00,,,0.64,0,weatherlink.com 1.10,2013-11-21 03:00:00,
2013-11-20 19:15:00,53.8,53.0,29.88,SSE,153,0.0,2.0,97,0.00,,,0.64,0,weatherlink.com 1.10,2013-11-21 03:15:00,
2013-11-20 19:30:00,53.9,53.0,29.88,SSE,153,0.0,1.0,97,0.00,,,0.64,0,weatherlink.com 1.10,2013-11-21 03:30:00,
2013-11-20 19:45:00,53.8,53.0,29.88,SSE,153,0.0,2.0,97,0.00,,,0.64,0,weatherlink.com 1.10,2013-11-21 03:45:00,
2013-11-20 20:00:00,53.7,53.0,29.88,SSE,153,1.0,3.0,97,0.00,,,0.64,0,weatherlink.com 1.10,2013-11-21 04:00:00,
2013-11-20 20:15:00,53.6,53.0,29.88,SSE,152,2.0,4.0,97,0.00,,,0.64,0,weatherlink.com 1.10,2013-11-21 04:15:00,
2013-11-20 20:30:00,53.2,52.0,29.88,SSE,152,1.0,3.0,97,0.00,,,0.64,0,weatherlink.com 1.10,2013-11-21 04:30:00,
2013-11-20 20:45:00,52.4,52.0,29.88,SSE,152,3.0,3.0,97,0.00,,,0.64,0,weatherlink.com 1.10,2013-11-21 04:45:00,
2013-11-20 21:01:00,51.4,51.0,29.89,SSE,152,1.0,1.0,97,0.00,,,0.64,0,weatherlink.com 1.10,2013-11-21 05:01:00,
2013-11-20 21:16:00,50.9,50.0,29.89,SSE,152,0.0,1.0,97,0.00,,,0.64,0,weatherlink.com 1.10,2013-11-21 05:16:00,
2013-11-20 21:31:00,50.7,50.0,29.89,SSE,152,0.0,0.0,97,0.00,,,0.64,0,weatherlink.com 1.10,2013-11-21 05:31:00,
2013-11-20 21:46:00,50.8,50.0,29.89,SSE,152,0.0,1.0,97,0.00,,,0.64,0,weatherlink.com 1.10,2013-11-21 05:46:00,
2013-11-20 22:01:00,50.9,50.0,29.90,SSE,150,0.0,2.0,97,0.00,,,0.64,0,weatherlink.com 1.10,2013-11-21 06:01:00,
2013-11-20 22:16:00,50.9,50.0,29.89,SSE,150,0.0,0.0,97,0.00,,,0.64,0,weatherlink.com 1.10,2013-11-21 06:16:00,
2013-11-20 22:31:00,50.9,50.0,29.89,SSE,150,0.0,2.0,97,0.00,,,0.64,0,weatherlink.com 1.10,2013-11-21 06:31:00,
2013-11-20 22:46:00,50.9,50.0,29.89,SSE,150,0.0,0.0,97,0.00,,,0.64,0,weatherlink.com 1.10,2013-11-21 06:46:00,
2013-11-20 23:01:00,51.0,50.0,29.89,SSE,150,0.0,1.0,97,0.00,,,0.64,0,weatherlink.com 1.10,2013-11-21 07:01:00,
2013-11-20 23:16:00,51.0,50.0,29.90,SSE,150,0.0,2.0,97,0.00,,,0.64,0,weatherlink.com 1.10,2013-11-21 07:16:00,
2013-11-20 23:31:00,50.8,50.0,29.90,SE,130,0.0,2.0,97,0.00,,,0.64,0,weatherlink.com 1.10,2013-11-21 07:31:00,
2013-11-20 23:46:00,50.7,50.0,29.90,SE,130,0.0,1.0,97,0.00,,,0.64,0,weatherlink.com 1.10,2013-11-21 07:46:00,